Academy, South Dakota
Current Conditions -  °F | °C
As of 1:15 PM on Monday 20 Oct 2014 (Local Time) from K9V9 Reporting Station
Clear Clear  
Wind Chill: 69°   Ceiling: Unl
Heat Index: 69°   Visibility: 10mi
Dew Point: 35°   Wind: 6mph
Humidity: 29%   Direction: 170°S
Pressure: 30.08"   Gusts: NA
Location:  43.4255°N, 98.9806°W
Report Text: K9V9 201815Z AUTO 17005KT 10SM CLR 20/02 A3008 RMK AO2 T02040017
Loading
Personal Weather Stations






























Interactive Weather Map New forecast layout! Learn more

10-Day Weather Forecast

Advertisements
Track Severe Weather on mobile